createdAt,value
2022-08-12T00:02:04.000Z,3.75
2022-08-12T00:07:26.744Z,3.67
2022-08-12T00:12:47.266Z,4.10
2022-08-12T00:18:07.502Z,4.32
2022-08-12T00:23:27.831Z,3.72
2022-08-12T00:28:48.783Z,3.78
2022-08-12T00:34:09.083Z,3.75
2022-08-12T00:39:31.419Z,3.75
2022-08-12T00:44:33.314Z,3.50
2022-08-12T00:49:39.291Z,3.45
2022-08-12T00:54:53.567Z,3.40
2022-08-12T01:00:14.438Z,3.95
2022-08-12T01:05:38.067Z,3.65
2022-08-12T01:11:00.961Z,3.65
2022-08-12T01:16:06.918Z,3.83
2022-08-12T01:21:50.799Z,4.30
2022-08-12T01:26:55.141Z,3.45
2022-08-12T01:31:59.624Z,4.05
2022-08-12T01:37:02.940Z,3.67
2022-08-12T01:42:10.192Z,3.72
2022-08-12T01:47:29.745Z,3.55
2022-08-12T01:52:43.474Z,3.80
2022-08-12T01:58:01.401Z,3.60
2022-08-12T02:03:30.913Z,3.80
2022-08-12T02:09:01.160Z,3.72
2022-08-12T02:14:23.867Z,3.78
2022-08-12T02:19:37.934Z,3.88
2022-08-12T02:24:42.613Z,4.20
2022-08-12T02:29:44.908Z,4.22
2022-08-12T02:34:47.278Z,4.00
2022-08-12T02:39:50.668Z,4.32
2022-08-12T02:44:55.649Z,4.45
2022-08-12T02:50:01.952Z,4.43
2022-08-12T02:55:13.400Z,4.30
2022-08-12T03:00:31.817Z,4.18
2022-08-12T03:05:38.681Z,4.22
2022-08-12T03:10:49.616Z,4.47
2022-08-12T03:15:55.613Z,4.15
2022-08-12T03:21:00.356Z,4.13
2022-08-12T03:26:03.416Z,4.35
2022-08-12T03:31:07.604Z,4.68
2022-08-12T03:36:10.688Z,4.63
2022-08-12T03:41:37.086Z,4.60
2022-08-12T03:47:00.406Z,4.20
2022-08-12T03:52:21.647Z,4.75
2022-08-12T03:57:41.939Z,4.63
2022-08-12T04:03:00.627Z,4.32
2022-08-12T04:08:03.543Z,4.70
2022-08-12T04:13:19.778Z,4.60
2022-08-12T04:18:23.568Z,4.53
2022-08-12T04:23:25.961Z,4.68
2022-08-12T04:28:28.748Z,4.63
2022-08-12T04:33:32.033Z,4.97
2022-08-12T04:38:34.554Z,4.18
2022-08-12T04:43:59.853Z,4.65
2022-08-12T04:49:02.690Z,3.78
2022-08-12T04:54:05.086Z,4.28
2022-08-12T04:59:07.853Z,4.65
2022-08-12T05:04:10.712Z,4.55
2022-08-12T05:09:13.508Z,4.30
2022-08-12T05:14:16.325Z,4.82
2022-08-12T05:19:22.347Z,4.68
2022-08-12T05:24:24.519Z,4.60
2022-08-12T05:30:08.009Z,4.55
2022-08-12T05:34:53.683Z,4.80
2022-08-12T05:39:55.376Z,4.82
2022-08-12T05:44:57.074Z,4.75
2022-08-12T05:49:59.609Z,5.10
2022-08-12T05:55:01.237Z,5.00
2022-08-12T06:00:05.871Z,4.63
2022-08-12T06:05:13.955Z,4.57
2022-08-12T06:10:31.715Z,4.53
2022-08-12T06:15:37.990Z,5.05
2022-08-12T06:20:41.415Z,4.40
2022-08-12T06:25:43.715Z,4.28
2022-08-12T06:31:08.201Z,4.40
2022-08-12T06:36:18.370Z,4.18
2022-08-12T06:42:17.738Z,3.70
2022-08-12T06:47:03.781Z,3.72
2022-08-12T06:52:07.435Z,3.42
2022-08-12T06:58:06.025Z,3.35
2022-08-12T07:02:33.765Z,2.85
2022-08-12T07:07:39.160Z,2.92
2022-08-12T07:12:41.086Z,2.40
2022-08-12T07:17:42.876Z,2.58
2022-08-12T07:22:44.943Z,2.70
2022-08-12T07:27:46.826Z,2.50
2022-08-12T07:32:51.366Z,2.50
2022-08-12T07:37:53.189Z,2.55
2022-08-12T07:42:54.881Z,2.28
2022-08-12T07:47:56.550Z,2.20
2022-08-12T07:52:59.834Z,2.08
2022-08-12T07:58:02.720Z,2.15
2022-08-12T08:03:04.519Z,2.20
2022-08-12T08:08:14.148Z,1.67
2022-08-12T08:13:16.550Z,1.70
2022-08-12T08:18:26.404Z,2.40
2022-08-12T08:23:56.069Z,1.63
2022-08-12T08:28:59.733Z,1.83
2022-08-12T08:34:34.015Z,1.70
2022-08-12T08:39:27.443Z,1.85
2022-08-12T08:44:29.117Z,1.60
2022-08-12T08:49:31.292Z,1.65
2022-08-12T08:54:33.630Z,1.63
2022-08-12T08:59:35.585Z,1.73
2022-08-12T09:05:12.013Z,1.40
2022-08-12T09:15:21.713Z,1.45
2022-08-12T09:25:49.698Z,1.17
2022-08-12T09:30:53.798Z,1.40
2022-08-12T09:36:05.084Z,1.02
2022-08-12T09:42:34.217Z,1.33
2022-08-12T09:46:28.946Z,1.30
2022-08-12T09:51:38.112Z,1.30
2022-08-12T09:57:00.082Z,1.25
2022-08-12T10:02:44.629Z,1.35
2022-08-12T10:07:31.004Z,1.55
2022-08-12T10:13:07.420Z,1.70
2022-08-12T10:18:13.824Z,1.60
2022-08-12T10:23:15.465Z,1.83
2022-08-12T10:28:38.251Z,1.65
2022-08-12T10:33:54.854Z,1.52
2022-08-12T10:38:57.415Z,1.80
2022-08-12T10:43:59.071Z,1.55
2022-08-12T10:49:06.976Z,1.60
2022-08-12T10:54:26.830Z,1.48
2022-08-12T11:00:01.354Z,1.60
2022-08-12T11:04:58.862Z,1.55
2022-08-12T11:10:19.458Z,1.73
2022-08-12T11:16:02.660Z,1.92
2022-08-12T11:20:52.049Z,1.33
2022-08-12T11:25:57.450Z,1.67
2022-08-12T11:31:00.039Z,1.80
2022-08-12T11:36:14.872Z,1.75
2022-08-12T11:41:17.314Z,1.80
2022-08-12T11:46:29.879Z,1.63
2022-08-12T11:51:38.798Z,1.70
2022-08-12T11:56:42.903Z,1.48
2022-08-12T12:02:02.879Z,1.60
2022-08-12T12:07:07.105Z,1.98
2022-08-12T12:12:12.810Z,1.80
2022-08-12T12:17:14.515Z,2.00
2022-08-12T12:22:26.783Z,2.00
2022-08-12T12:28:05.625Z,2.00
2022-08-12T12:33:09.568Z,2.10
2022-08-12T12:38:13.018Z,2.30
2022-08-12T12:43:16.418Z,1.77
2022-08-12T12:48:30.846Z,1.90
2022-08-12T12:54:08.036Z,2.17
2022-08-12T12:58:54.376Z,2.20
2022-08-12T13:04:01.727Z,1.90
2022-08-12T13:09:04.312Z,1.90
2022-08-12T13:14:12.044Z,1.67
2022-08-12T13:19:15.268Z,1.67
2022-08-12T13:24:16.912Z,1.75
2022-08-12T13:29:20.775Z,1.65
2022-08-12T13:34:32.169Z,1.40
2022-08-12T13:39:39.996Z,1.65
2022-08-12T13:44:42.587Z,2.13
2022-08-12T13:49:54.858Z,1.70
2022-08-12T13:54:57.315Z,1.80
2022-08-12T14:00:00.816Z,1.63
2022-08-12T14:05:38.136Z,1.60
2022-08-12T14:10:39.255Z,1.77
2022-08-12T14:15:55.168Z,1.20
2022-08-12T14:21:09.555Z,1.30
2022-08-12T14:26:17.053Z,1.48
2022-08-12T14:31:21.672Z,1.70
2022-08-12T14:36:24.439Z,1.60
2022-08-12T14:41:36.947Z,1.70
2022-08-12T14:46:58.174Z,1.58
2022-08-12T14:52:44.180Z,1.45
2022-08-12T14:57:23.363Z,1.60
2022-08-12T15:02:26.503Z,1.67
2022-08-12T15:07:33.125Z,1.75
2022-08-12T15:12:50.518Z,1.70
2022-08-12T15:18:02.475Z,1.77
2022-08-12T15:23:18.153Z,1.60
2022-08-12T15:28:25.843Z,1.88
2022-08-12T15:33:44.749Z,2.10
2022-08-12T15:38:47.232Z,2.10
2022-08-12T15:44:16.500Z,2.33
2022-08-12T15:49:17.197Z,2.28
2022-08-12T15:54:35.144Z,2.50
2022-08-12T16:00:00.820Z,2.20
2022-08-12T16:04:59.964Z,2.10
2022-08-12T16:10:08.371Z,2.08
2022-08-12T16:15:13.295Z,2.03
2022-08-12T16:20:33.127Z,2.35
2022-08-12T16:26:03.153Z,2.45
2022-08-12T16:30:57.341Z,2.20
2022-08-12T16:35:58.999Z,2.15
2022-08-12T16:41:01.646Z,2.35
2022-08-12T16:46:31.979Z,2.03
2022-08-12T16:51:28.956Z,2.13
2022-08-12T16:56:37.946Z,1.90
2022-08-12T17:01:39.771Z,1.95
2022-08-12T17:06:44.241Z,1.88
2022-08-12T17:11:49.307Z,2.10
2022-08-12T17:16:55.403Z,2.10
2022-08-12T17:22:02.486Z,2.65
2022-08-12T17:27:16.350Z,2.15
2022-08-12T17:32:28.031Z,2.42
2022-08-12T17:37:30.105Z,2.13
2022-08-12T17:42:35.737Z,2.47
2022-08-12T17:47:38.787Z,2.35
2022-08-12T17:52:41.184Z,2.30
2022-08-12T17:57:43.731Z,2.08
2022-08-12T18:02:48.912Z,1.90
2022-08-12T18:07:57.696Z,2.05
2022-08-12T18:13:01.239Z,2.28
2022-08-12T18:18:05.846Z,2.10
2022-08-12T18:23:23.624Z,2.08
2022-08-12T18:28:31.684Z,2.28
2022-08-12T18:33:44.045Z,2.20
2022-08-12T18:38:51.168Z,2.60
2022-08-12T18:44:14.957Z,2.55
2022-08-12T18:49:30.626Z,2.63
2022-08-12T18:54:41.455Z,3.50
2022-08-12T18:59:59.856Z,3.90
2022-08-12T19:05:06.673Z,4.63
2022-08-12T19:10:11.341Z,4.47
2022-08-12T19:15:13.078Z,4.40
2022-08-12T19:20:15.863Z,5.65
2022-08-12T19:26:01.355Z,4.18
2022-08-12T19:31:05.663Z,8.63
2022-08-12T19:36:24.433Z,6.85
2022-08-12T19:41:34.663Z,5.50
2022-08-12T19:46:53.184Z,6.95
2022-08-12T19:51:55.502Z,8.07
2022-08-12T19:56:58.523Z,6.57
2022-08-12T20:02:04.925Z,5.50
2022-08-12T20:07:22.928Z,4.90
2022-08-12T20:12:32.972Z,4.97
2022-08-12T20:17:50.497Z,5.88
2022-08-12T20:22:53.717Z,7.55
2022-08-12T20:28:04.396Z,5.75
2022-08-12T20:33:18.755Z,5.60
2022-08-12T20:38:26.494Z,7.90
2022-08-12T20:43:32.085Z,8.07
2022-08-12T20:48:34.109Z,7.40
2022-08-12T20:53:54.273Z,6.38
2022-08-12T20:59:01.115Z,6.43
2022-08-12T21:04:21.938Z,8.43
2022-08-12T21:09:25.715Z,6.00
2022-08-12T21:14:39.530Z,5.85
2022-08-12T21:19:56.601Z,5.20
2022-08-12T21:24:58.377Z,5.00
2022-08-12T21:30:00.741Z,5.68
2022-08-12T21:35:04.971Z,5.22
2022-08-12T21:40:17.241Z,5.50
2022-08-12T21:45:46.319Z,4.97
2022-08-12T21:50:41.418Z,4.72
2022-08-12T21:55:45.570Z,4.80
2022-08-12T22:00:47.809Z,6.05
2022-08-12T22:06:08.118Z,6.22
2022-08-12T22:11:21.545Z,6.78
2022-08-12T22:16:23.293Z,5.78
2022-08-12T22:21:37.777Z,5.10
2022-08-12T22:26:39.939Z,4.75
2022-08-12T22:31:44.327Z,4.88
2022-08-12T22:36:49.748Z,5.40
2022-08-12T22:42:11.635Z,5.10
2022-08-12T22:47:51.174Z,5.10
2022-08-12T22:52:53.633Z,4.95
2022-08-12T22:57:58.184Z,5.18
2022-08-12T23:03:02.977Z,5.43
2022-08-12T23:08:05.164Z,5.55
2022-08-12T23:13:25.560Z,5.38
2022-08-12T23:18:33.243Z,5.05
2022-08-12T23:23:57.751Z,5.28
2022-08-12T23:29:25.882Z,5.88
2022-08-12T23:34:34.413Z,5.43
2022-08-12T23:40:13.498Z,5.95
2022-08-12T23:45:09.037Z,5.55
2022-08-12T23:50:23.968Z,5.30
2022-08-12T23:55:40.825Z,6.10
